Bookmark and Share
Track history (hours):
 

Zim Panama

Last reported at 2014-Mar-20 18:33 UTC. Time now 2014-Apr-18 00:25 UTC.
Position N 30°33' E 122°21'.
Warning: this ship's position is 28 days out of date.

Length 294.12 m; beam 32.2 m; draft 9.45 m.

Type: Ship (hazmat cat C). MMSI: 235474000.

NotesDate/timePositionNaut miles runAvg speedWind from/ knotsBaromVisibWave heightAir tempDewpointWater temp
2014-Mar-20 18:33N 30°33' E 122°21'8 8.5
2014-Mar-20 17:34N 30°34' E 122°11'7 0.5
2014-Mar-20 03:33N 30°37' E 122°03'1110.7
2014-Mar-20 02:33N 30°34' E 122°15'9 8.5
2014-Mar-20 01:32N 30°32' E 122°25'9 8.9
2014-Mar-20 00:30N 30°29' E 122°35'4 0.1
2014-Mar-18 09:17N 30°26' E 122°38'1012.9
2014-Mar-18 08:29N 30°20' E 122°47'4110.5
2014-Mar-18 04:33N 29°40' E 122°35'1514.5
2014-Mar-18 03:33N 29°44' E 122°19'1110.6
2014-Mar-18 02:33N 29°52' E 122°11'7 5.8
2014-Mar-18 01:22N 29°53' E 122°03'0 0.0
2014-Mar-18 00:31N 29°53' E 122°03'0 0.0
2014-Mar-17 23:28N 29°53' E 122°03'0 0.1
2014-Mar-17 22:31N 29°53' E 122°03'0 0.0
2014-Mar-17 21:31N 29°53' E 122°03'0 0.0
2014-Mar-17 20:31N 29°53' E 122°03'0 0.0
2014-Mar-17 19:31N 29°53' E 122°03'0 0.0
2014-Mar-17 18:31N 29°53' E 122°03'0 0.0
2014-Mar-17 17:31N 29°53' E 122°03'0 0.0
2014-Mar-17 16:33N 29°53' E 122°03'0 0.1
2014-Mar-17 15:30N 29°53' E 122°03'0 0.0
2014-Mar-17 14:33N 29°53' E 122°03'0 0.1
2014-Mar-17 13:33N 29°53' E 122°03'0 0.1
2014-Mar-17 12:33N 29°53' E 122°03'0 0.1
2014-Mar-17 11:33N 29°53' E 122°03'1 1.3
2014-Mar-17 10:33N 29°55' E 122°03'9 9.4
2014-Mar-17 09:33N 29°50' E 122°13'1010.0
2014-Mar-17 08:33N 29°44' E 122°22'1312.6
2014-Mar-17 07:33N 29°41' E 122°36'1716.5
2014-Mar-17 06:33N 29°53' E 122°49'  
2014-Mar-14 21:28N 35°58' E 120°52'  

Dump ship's entire track history

sailing weather and tide predictions

Zim Panama — VSWW5 — position and weather